NCAR-RAP Real-Time Weather Data

Output produced by METARs form (06 May 2021  17:05 UTC)
found at http://weather.rap.ucar.edu/surface/
 
KBRD 061653Z AUTO 26008KT 10SM CLR 13/M06 A3016 RMK AO2 SLP220 T01331061
KBRD 061553Z AUTO 29007KT 260V330 10SM CLR 12/M06 A3018 RMK AO2 SLP229 T01171061
KBRD 061453Z AUTO 34010KT 10SM CLR 10/M06 A3020 RMK AO2 SLP235 T01001061 50008
KBRD 061353Z AUTO 35007KT 10SM CLR 09/M03 A3020 RMK AO2 SLP236 T00891033
KBRD 061253Z AUTO 33007KT 10SM CLR 07/M02 A3020 RMK AO2 SLP233 T00671017
KBRD 061153Z AUTO 32005KT 10SM CLR 05/M01 A3018 RMK AO2 SLP226 T00501006 10094 20017 53005
KBRD 061053Z AUTO 27003KT 10SM CLR 04/M01 A3017 RMK AO2 SLP223 T00391011
KBRD 060953Z AUTO 29004KT 10SM CLR 05/M01 A3016 RMK AO2 SLP220 T00501011
KBRD 060853Z AUTO 31006KT 10SM BKN090 07/M01 A3016 RMK AO2 SLP220 T00671006 50000
KBRD 060753Z AUTO 29006KT 10SM BKN075 08/M01 A3016 RMK AO2 SLP220 T00831011
KBRD 060653Z AUTO 30008KT 10SM BKN070 09/M02 A3016 RMK AO2 SLP219 T00891022
KBRD 060553Z AUTO 22003KT 10SM OVC090 06/00 A3016 RMK AO2 SLP221 T00610000 10122 20044 401441022 53005
KBRD 060453Z AUTO 20004KT 10SM SCT080 OVC110 06/M01 A3015 RMK AO2 SLP218 T00561011
KBRD 060353Z AUTO 20003KT 10SM BKN090 06/M03 A3015 RMK AO2 SLP219 T00561033
KBRD 060253Z AUTO 00000KT 10SM CLR 06/M05 A3015 RMK AO2 SLP217 T00611050 53005